createdAt,value
2022-08-09T00:02:29.024Z,1.45
2022-08-09T00:05:03.604Z,1.65
2022-08-09T00:07:45.197Z,1.60
2022-08-09T00:10:21.605Z,1.88
2022-08-09T00:12:52.997Z,1.33
2022-08-09T00:15:26.515Z,1.23
2022-08-09T00:18:11.568Z,1.65
2022-08-09T00:20:42.427Z,1.73
2022-08-09T00:23:55.056Z,1.50
2022-08-09T00:26:06.542Z,1.52
2022-08-09T00:28:35.195Z,1.60
2022-08-09T00:31:30.667Z,1.42
2022-08-09T00:33:52.678Z,1.20
2022-08-09T00:36:20.503Z,1.35
2022-08-09T00:38:50.782Z,1.33
2022-08-09T00:44:11.191Z,1.90
2022-08-09T00:44:20.005Z,1.45
2022-08-09T00:47:04.692Z,1.25
2022-08-09T00:49:36.683Z,1.40
2022-08-09T00:52:06.106Z,1.30
2022-08-09T00:54:43.070Z,1.90
2022-08-09T00:57:12.205Z,1.65
2022-08-09T00:59:46.702Z,1.80
2022-08-09T01:02:21.746Z,1.30
2022-08-09T01:05:21.863Z,1.23
2022-08-09T01:08:00.352Z,1.15
2022-08-09T01:10:42.410Z,1.70
2022-08-09T01:13:31.034Z,1.30
2022-08-09T01:16:12.936Z,1.40
2022-08-09T01:18:47.699Z,1.58
2022-08-09T01:21:53.789Z,1.70
2022-08-09T01:24:44.710Z,1.50
2022-08-09T01:27:21.878Z,1.70
2022-08-09T01:29:57.034Z,1.35
2022-08-09T01:32:45.430Z,1.75
2022-08-09T01:35:38.292Z,1.50
2022-08-09T01:38:14.940Z,1.40
2022-08-09T01:40:52.429Z,1.88
2022-08-09T01:43:31.130Z,1.67
2022-08-09T01:45:59.039Z,1.67
2022-08-09T01:48:29.765Z,1.88
2022-08-09T01:50:59.785Z,1.70
2022-08-09T01:53:29.215Z,1.55
2022-08-09T01:56:11.298Z,1.63
2022-08-09T01:58:40.268Z,1.90
2022-08-09T02:01:09.215Z,1.77
2022-08-09T02:03:37.603Z,1.60
2022-08-09T02:06:08.066Z,1.67
2022-08-09T02:08:58.016Z,1.67
2022-08-09T02:11:43.760Z,1.45
2022-08-09T02:14:15.862Z,1.65
2022-08-09T02:17:15.154Z,1.50
2022-08-09T02:19:43.607Z,1.70
2022-08-09T02:22:48.521Z,2.25
2022-08-09T02:25:24.152Z,1.70
2022-08-09T02:28:06.737Z,1.73
2022-08-09T02:30:42.705Z,1.67
2022-08-09T02:33:14.461Z,1.30
2022-08-09T02:36:01.853Z,1.80
2022-08-09T02:38:35.804Z,2.47
2022-08-09T02:41:08.637Z,1.70
2022-08-09T02:43:54.234Z,1.80
2022-08-09T02:46:28.450Z,2.03
2022-08-09T02:49:01.225Z,2.10
2022-08-09T02:51:37.122Z,1.77
2022-08-09T02:54:10.969Z,2.00
2022-08-09T02:56:51.190Z,2.28
2022-08-09T02:59:26.125Z,2.10
2022-08-09T03:02:07.222Z,1.98
2022-08-09T03:04:40.893Z,2.00
2022-08-09T03:07:14.106Z,2.30
2022-08-09T03:09:43.428Z,2.08
2022-08-09T03:12:23.545Z,2.30
2022-08-09T03:14:52.213Z,2.00
2022-08-09T03:17:26.985Z,1.92
2022-08-09T03:20:02.765Z,1.60
2022-08-09T03:22:33.322Z,2.28
2022-08-09T03:25:26.973Z,1.98
2022-08-09T03:27:58.326Z,2.17
2022-08-09T03:30:29.143Z,2.20
2022-08-09T03:32:59.396Z,2.22
2022-08-09T03:36:11.101Z,2.63
2022-08-09T03:38:28.512Z,2.10
2022-08-09T03:40:56.661Z,2.28
2022-08-09T03:43:25.259Z,2.60
2022-08-09T03:46:03.829Z,2.15
2022-08-09T03:48:53.977Z,2.75
2022-08-09T03:51:43.940Z,2.20
2022-08-09T03:54:14.721Z,2.42
2022-08-09T03:56:42.326Z,3.17
2022-08-09T03:59:17.041Z,2.45
2022-08-09T04:01:50.725Z,2.38
2022-08-09T04:04:19.017Z,2.40
2022-08-09T04:06:48.869Z,3.10
2022-08-09T04:09:41.793Z,2.38
2022-08-09T04:12:11.847Z,2.65
2022-08-09T04:15:01.864Z,2.25
2022-08-09T04:17:29.447Z,7.55
2022-08-09T04:19:56.753Z,8.10
2022-08-09T04:22:24.976Z,5.38
2022-08-09T04:24:54.990Z,3.33
2022-08-09T04:27:22.429Z,2.20
2022-08-09T04:29:50.518Z,2.90
2022-08-09T04:32:31.426Z,3.25
2022-08-09T04:35:01.292Z,2.83
2022-08-09T04:37:46.074Z,2.97
2022-08-09T04:40:28.857Z,3.45
2022-08-09T04:43:01.997Z,2.53
2022-08-09T04:45:35.770Z,2.75
2022-08-09T04:48:10.445Z,4.85
2022-08-09T04:50:38.235Z,2.85
2022-08-09T04:53:13.592Z,5.88
2022-08-09T04:55:58.413Z,2.08
2022-08-09T04:58:31.692Z,3.47
2022-08-09T05:01:01.459Z,2.75
2022-08-09T05:03:39.898Z,5.10
2022-08-09T05:06:09.958Z,3.35
2022-08-09T05:08:38.638Z,2.65
2022-08-09T05:11:06.688Z,2.50
2022-08-09T05:13:38.823Z,2.10
2022-08-09T05:16:10.412Z,2.00
2022-08-09T05:18:57.667Z,2.95
2022-08-09T05:21:29.851Z,2.55
2022-08-09T05:24:02.078Z,1.92
2022-08-09T05:26:45.265Z,3.53
2022-08-09T05:29:24.282Z,2.10
2022-08-09T05:32:00.609Z,2.30
2022-08-09T05:34:30.661Z,2.95
2022-08-09T05:37:07.359Z,1.85
2022-08-09T05:39:43.333Z,2.05
2022-08-09T05:42:17.826Z,2.22
2022-08-09T05:44:53.251Z,2.30
2022-08-09T05:47:25.248Z,2.08
2022-08-09T05:50:25.346Z,1.58
2022-08-09T05:52:44.240Z,1.67
2022-08-09T05:55:20.983Z,1.60
2022-08-09T05:57:50.813Z,2.00
2022-08-09T06:00:33.649Z,1.58
2022-08-09T06:03:03.312Z,1.33
2022-08-09T06:05:57.690Z,1.27
2022-08-09T06:08:24.465Z,1.30
2022-08-09T06:10:56.242Z,1.05
2022-08-09T06:13:28.634Z,1.20
2022-08-09T06:16:04.513Z,1.40
2022-08-09T06:18:33.115Z,1.30
2022-08-09T06:21:01.208Z,1.58
2022-08-09T06:23:58.662Z,1.50
2022-08-09T06:26:20.969Z,1.50
2022-08-09T06:29:00.087Z,1.83
2022-08-09T06:31:39.748Z,1.13
2022-08-09T06:34:20.322Z,1.10
2022-08-09T06:36:56.483Z,1.40
2022-08-09T06:39:57.999Z,1.20
2022-08-09T06:42:24.892Z,1.20
2022-08-09T06:44:58.551Z,1.27
2022-08-09T06:47:30.271Z,1.20
2022-08-09T06:50:14.128Z,1.20
2022-08-09T06:52:46.985Z,1.23
2022-08-09T06:55:16.252Z,1.17
2022-08-09T06:58:03.263Z,0.93
2022-08-09T07:00:51.346Z,1.15
2022-08-09T07:03:28.569Z,1.17
2022-08-09T07:06:03.978Z,1.42
2022-08-09T07:08:34.090Z,1.73
2022-08-09T07:11:03.358Z,2.00
2022-08-09T07:13:30.914Z,1.27
2022-08-09T07:16:43.206Z,1.25
2022-08-09T07:18:59.563Z,1.40
2022-08-09T07:21:26.637Z,1.50
2022-08-09T07:23:58.513Z,1.20
2022-08-09T07:26:26.060Z,1.30
2022-08-09T07:29:09.263Z,1.20
2022-08-09T07:31:45.334Z,1.17
2022-08-09T07:34:20.304Z,1.10
2022-08-09T07:36:49.383Z,2.25
2022-08-09T07:39:20.396Z,1.85
2022-08-09T07:42:05.240Z,1.38
2022-08-09T07:44:52.424Z,1.00
2022-08-09T07:47:21.655Z,1.45
2022-08-09T07:50:05.105Z,1.17
2022-08-09T07:52:35.894Z,1.00
2022-08-09T07:55:03.961Z,1.40
2022-08-09T07:57:36.407Z,2.78
2022-08-09T08:00:08.965Z,1.20
2022-08-09T08:02:42.242Z,1.30
2022-08-09T08:05:17.523Z,1.20
2022-08-09T08:08:43.575Z,1.08
2022-08-09T08:10:34.696Z,1.17
2022-08-09T08:13:03.939Z,0.95
2022-08-09T08:15:35.532Z,1.00
2022-08-09T08:18:04.965Z,1.10
2022-08-09T08:20:33.609Z,1.58
2022-08-09T08:23:06.686Z,1.02
2022-08-09T08:25:46.567Z,1.00
2022-08-09T08:28:18.204Z,1.20
2022-08-09T08:30:52.998Z,0.98
2022-08-09T08:33:24.195Z,1.00
2022-08-09T08:35:58.765Z,1.23
2022-08-09T08:38:27.891Z,0.90
2022-08-09T08:40:56.536Z,1.42
2022-08-09T08:43:27.097Z,1.30
2022-08-09T08:46:03.702Z,0.90
2022-08-09T08:48:51.627Z,1.83
2022-08-09T08:51:22.946Z,1.23
2022-08-09T08:54:03.235Z,1.95
2022-08-09T08:56:37.508Z,1.70
2022-08-09T08:59:19.381Z,1.20
2022-08-09T09:01:53.052Z,1.00
2022-08-09T09:04:47.536Z,1.17
2022-08-09T09:07:20.453Z,1.05
2022-08-09T09:10:01.541Z,1.15
2022-08-09T09:12:35.568Z,1.35
2022-08-09T09:15:06.417Z,1.00
2022-08-09T09:17:49.243Z,1.58
2022-08-09T09:20:21.622Z,0.93
2022-08-09T09:23:01.795Z,1.20
2022-08-09T09:26:01.911Z,1.23
2022-08-09T09:28:21.604Z,1.02
2022-08-09T09:32:04.529Z,1.35
2022-08-09T09:34:14.180Z,1.20
2022-08-09T09:36:50.994Z,0.90
2022-08-09T09:39:23.471Z,1.08
2022-08-09T09:41:54.292Z,1.00
2022-08-09T09:44:34.287Z,1.38
2022-08-09T09:47:08.540Z,1.40
2022-08-09T09:50:07.807Z,1.10
2022-08-09T09:52:36.397Z,1.65
2022-08-09T09:55:24.252Z,1.10
2022-08-09T09:58:19.723Z,1.20
2022-08-09T10:00:54.796Z,0.90
2022-08-09T10:03:57.801Z,1.00
2022-08-09T10:06:43.483Z,1.00
2022-08-09T10:09:22.330Z,1.20
2022-08-09T10:12:12.531Z,1.00
2022-08-09T10:14:48.461Z,1.05
2022-08-09T10:17:51.152Z,1.30
2022-08-09T10:20:32.269Z,1.10
2022-08-09T10:23:21.946Z,1.10
2022-08-09T10:26:07.678Z,0.90
2022-08-09T10:28:39.049Z,1.20
2022-08-09T10:32:27.921Z,0.93
2022-08-09T10:34:10.831Z,0.70
2022-08-09T10:36:45.113Z,1.00
2022-08-09T10:39:15.712Z,1.48
2022-08-09T10:41:48.659Z,1.15
2022-08-09T10:44:24.804Z,0.90
2022-08-09T10:48:14.447Z,0.95
2022-08-09T10:50:32.748Z,1.08
2022-08-09T10:53:23.934Z,1.30
2022-08-09T10:56:24.651Z,0.90
2022-08-09T10:58:57.240Z,0.98
2022-08-09T11:03:14.335Z,1.30
2022-08-09T11:04:30.604Z,0.90
2022-08-09T11:07:00.268Z,1.25
2022-08-09T11:09:47.939Z,1.25
2022-08-09T11:12:26.535Z,1.00
2022-08-09T11:14:58.980Z,1.33
2022-08-09T11:17:26.406Z,0.90
2022-08-09T11:20:11.981Z,1.20
2022-08-09T11:22:45.875Z,1.20
2022-08-09T11:25:25.897Z,1.58
2022-08-09T11:28:34.375Z,1.40
2022-08-09T11:31:53.153Z,0.98
2022-08-09T11:34:36.773Z,1.00
2022-08-09T11:37:07.338Z,1.13
2022-08-09T11:40:04.007Z,0.80
2022-08-09T11:42:49.947Z,1.25
2022-08-09T11:45:42.958Z,1.00
2022-08-09T11:48:26.408Z,1.10
2022-08-09T11:52:49.109Z,1.02
2022-08-09T11:54:01.257Z,1.00
2022-08-09T11:56:41.493Z,0.80
2022-08-09T11:59:30.356Z,1.20
2022-08-09T12:02:35.067Z,1.10
2022-08-09T12:04:54.543Z,2.13
2022-08-09T12:07:34.514Z,0.95
2022-08-09T12:10:38.038Z,1.10
2022-08-09T12:12:58.278Z,1.20
2022-08-09T12:15:48.867Z,1.75
2022-08-09T12:18:25.948Z,1.33
2022-08-09T12:20:59.165Z,0.80
2022-08-09T12:23:56.500Z,1.02
2022-08-09T12:26:19.536Z,0.75
2022-08-09T12:28:58.186Z,1.08
2022-08-09T12:31:59.013Z,1.05
2022-08-09T12:34:37.908Z,1.05
2022-08-09T12:37:22.255Z,1.10
2022-08-09T12:40:06.999Z,1.23
2022-08-09T12:42:35.008Z,1.10
2022-08-09T12:45:03.877Z,1.02
2022-08-09T12:47:52.031Z,1.23
2022-08-09T12:50:23.380Z,0.90
2022-08-09T12:53:09.161Z,1.13
2022-08-09T12:56:14.627Z,0.93
2022-08-09T12:58:28.068Z,1.00
2022-08-09T13:00:56.486Z,0.90
2022-08-09T13:03:58.510Z,1.08
2022-08-09T13:06:34.382Z,1.48
2022-08-09T13:09:11.173Z,1.25
2022-08-09T13:11:47.079Z,0.90
2022-08-09T13:14:42.182Z,1.10
2022-08-09T13:17:44.439Z,0.90
2022-08-09T13:20:14.103Z,1.10
2022-08-09T13:23:00.960Z,1.00
2022-08-09T13:25:42.006Z,1.08
2022-08-09T13:28:24.360Z,0.90
2022-08-09T13:32:17.771Z,1.10
2022-08-09T13:33:56.857Z,1.05
2022-08-09T13:36:40.887Z,0.90
2022-08-09T13:41:55.511Z,1.00
2022-08-09T13:42:12.204Z,1.00
2022-08-09T13:44:42.042Z,1.20
2022-08-09T13:47:31.557Z,1.00
2022-08-09T13:50:12.639Z,1.00
2022-08-09T13:52:48.015Z,0.80
2022-08-09T13:55:17.815Z,1.23
2022-08-09T13:57:55.966Z,1.23
2022-08-09T14:00:28.642Z,0.88
2022-08-09T14:03:03.579Z,1.10
2022-08-09T14:05:56.513Z,1.20
2022-08-09T14:08:30.296Z,0.95
2022-08-09T14:11:00.169Z,1.08
2022-08-09T14:14:16.331Z,0.93
2022-08-09T14:16:18.151Z,0.90
2022-08-09T14:18:49.277Z,0.95
2022-08-09T14:21:20.142Z,1.10
2022-08-09T14:23:56.691Z,1.05
2022-08-09T14:26:32.865Z,1.10
2022-08-09T14:29:07.535Z,1.35
2022-08-09T14:31:51.872Z,0.95
2022-08-09T14:34:31.017Z,1.13
2022-08-09T14:37:00.747Z,1.35
2022-08-09T14:39:46.438Z,0.90
2022-08-09T14:42:31.456Z,1.30
2022-08-09T14:46:39.402Z,0.90
2022-08-09T14:47:56.730Z,1.23
2022-08-09T14:50:27.078Z,1.00
2022-08-09T14:52:54.576Z,1.50
2022-08-09T14:55:21.746Z,1.52
2022-08-09T14:57:49.726Z,1.75
2022-08-09T15:00:18.021Z,1.13
2022-08-09T15:02:47.158Z,1.10
2022-08-09T15:05:17.064Z,1.05
2022-08-09T15:07:45.430Z,1.10
2022-08-09T15:10:24.727Z,1.08
2022-08-09T15:12:56.084Z,1.30
2022-08-09T15:15:24.589Z,1.00
2022-08-09T15:17:56.263Z,0.95
2022-08-09T15:21:58.780Z,1.02
2022-08-09T15:24:01.871Z,1.00
2022-08-09T15:25:58.811Z,1.13
2022-08-09T15:28:28.014Z,1.15
2022-08-09T15:31:07.283Z,0.90
2022-08-09T15:34:31.163Z,0.80
2022-08-09T15:36:29.094Z,1.25
2022-08-09T15:38:58.668Z,0.82
2022-08-09T15:41:31.253Z,1.00
2022-08-09T15:44:02.041Z,0.88
2022-08-09T15:46:33.190Z,0.88
2022-08-09T15:49:22.134Z,1.42
2022-08-09T15:52:05.246Z,0.95
2022-08-09T15:54:46.123Z,1.20
2022-08-09T15:57:34.374Z,1.27
2022-08-09T16:00:26.612Z,0.88
2022-08-09T16:02:56.230Z,1.00
2022-08-09T16:05:53.865Z,1.05
2022-08-09T16:08:30.619Z,0.77
2022-08-09T16:11:00.129Z,1.15
2022-08-09T16:14:05.817Z,1.13
2022-08-09T16:16:18.630Z,1.30
2022-08-09T16:18:47.182Z,0.90
2022-08-09T16:21:16.828Z,2.22
2022-08-09T16:23:54.655Z,1.10
2022-08-09T16:26:34.965Z,1.02
2022-08-09T16:29:15.061Z,1.00
2022-08-09T16:32:18.561Z,0.90
2022-08-09T16:34:56.691Z,1.17
2022-08-09T16:37:53.639Z,1.08
2022-08-09T16:40:09.227Z,0.90
2022-08-09T16:42:36.871Z,0.93
2022-08-09T16:45:06.790Z,2.50
2022-08-09T16:48:42.405Z,1.42
2022-08-09T16:50:32.430Z,1.02
2022-08-09T16:53:02.014Z,1.27
2022-08-09T16:55:58.367Z,0.98
2022-08-09T16:58:21.089Z,0.93
2022-08-09T17:00:48.890Z,0.85
2022-08-09T17:03:21.922Z,0.90
2022-08-09T17:06:06.854Z,1.13
2022-08-09T17:08:44.438Z,1.40
2022-08-09T17:11:24.514Z,1.08
2022-08-09T17:14:01.971Z,0.90
2022-08-09T17:16:29.529Z,1.27
2022-08-09T17:18:58.395Z,0.93
2022-08-09T17:21:29.148Z,0.95
2022-08-09T17:24:21.312Z,0.88
2022-08-09T17:26:43.179Z,1.50
2022-08-09T17:29:20.745Z,1.05
2022-08-09T17:31:49.324Z,0.98
2022-08-09T17:35:00.826Z,1.30
2022-08-09T17:37:04.258Z,1.13
2022-08-09T17:39:53.267Z,1.02
2022-08-09T17:42:41.571Z,1.02
2022-08-09T17:45:16.095Z,1.08
2022-08-09T17:47:55.602Z,1.10
2022-08-09T17:50:36.939Z,1.13
2022-08-09T17:53:10.408Z,1.20
2022-08-09T17:55:49.415Z,1.20
2022-08-09T17:58:19.157Z,0.90
2022-08-09T18:00:48.086Z,0.90
2022-08-09T18:03:15.749Z,1.10
2022-08-09T18:05:45.363Z,1.20
2022-08-09T18:08:21.934Z,1.10
2022-08-09T18:11:01.075Z,1.20
2022-08-09T18:13:43.000Z,1.75
2022-08-09T18:16:29.526Z,1.58
2022-08-09T18:18:59.462Z,1.30
2022-08-09T18:21:40.931Z,1.15
2022-08-09T18:24:14.235Z,1.40
2022-08-09T18:26:46.881Z,1.67
2022-08-09T18:30:38.429Z,1.08
2022-08-09T18:32:07.497Z,1.52
2022-08-09T18:34:36.513Z,1.10
2022-08-09T18:37:05.239Z,1.40
2022-08-09T18:39:39.384Z,1.38
2022-08-09T18:42:09.368Z,1.52
2022-08-09T18:44:39.222Z,1.77
2022-08-09T18:47:15.805Z,1.70
2022-08-09T18:49:46.911Z,1.25
2022-08-09T18:52:18.909Z,1.20
2022-08-09T18:54:53.446Z,1.20
2022-08-09T18:57:22.932Z,1.55
2022-08-09T18:59:57.427Z,1.30
2022-08-09T19:02:32.296Z,1.33
2022-08-09T19:05:04.115Z,1.08
2022-08-09T19:07:59.228Z,1.20
2022-08-09T19:10:37.387Z,1.42
2022-08-09T19:13:23.107Z,1.15
2022-08-09T19:15:59.164Z,1.08
2022-08-09T19:18:34.087Z,1.35
2022-08-09T19:21:09.434Z,1.80
2022-08-09T19:24:36.304Z,1.27
2022-08-09T19:26:34.843Z,1.10
2022-08-09T19:29:15.756Z,1.40
2022-08-09T19:31:51.071Z,0.93
2022-08-09T19:34:22.933Z,1.20
2022-08-09T19:36:57.213Z,1.73
2022-08-09T19:39:42.900Z,1.33
2022-08-09T19:42:15.196Z,1.25
2022-08-09T19:44:51.082Z,1.27
2022-08-09T19:47:23.355Z,1.60
2022-08-09T19:50:08.930Z,1.38
2022-08-09T19:52:49.606Z,1.00
2022-08-09T19:55:30.539Z,1.20
2022-08-09T19:58:16.622Z,1.15
2022-08-09T20:00:45.755Z,1.20
2022-08-09T20:04:27.953Z,1.20
2022-08-09T20:06:04.102Z,1.05
2022-08-09T20:08:34.922Z,1.75
2022-08-09T20:11:04.542Z,1.45
2022-08-09T20:13:37.189Z,1.40
2022-08-09T20:16:33.029Z,1.70
2022-08-09T20:19:42.900Z,1.20
2022-08-09T20:21:57.065Z,1.10
2022-08-09T20:24:29.865Z,1.42
2022-08-09T20:27:01.287Z,1.05
2022-08-09T20:29:37.073Z,1.02
2022-08-09T20:32:29.907Z,1.33
2022-08-09T20:34:55.631Z,1.10
2022-08-09T20:37:22.913Z,1.40
2022-08-09T20:40:15.847Z,1.08
2022-08-09T20:42:37.942Z,2.00
2022-08-09T20:46:01.009Z,0.90
2022-08-09T20:47:55.136Z,1.38
2022-08-09T20:50:47.133Z,1.38
2022-08-09T20:53:21.066Z,1.25
2022-08-09T20:56:01.889Z,1.42
2022-08-09T20:58:32.919Z,1.33
2022-08-09T21:01:32.521Z,1.20
2022-08-09T21:05:48.261Z,1.42
2022-08-09T21:06:42.580Z,1.52
2022-08-09T21:09:11.667Z,1.30
2022-08-09T21:14:29.584Z,1.42
2022-08-09T21:16:59.438Z,1.40
2022-08-09T21:20:19.097Z,1.10
2022-08-09T21:22:35.973Z,0.90
2022-08-09T21:25:20.839Z,1.40
2022-08-09T21:27:51.793Z,1.25
2022-08-09T21:30:22.170Z,1.73
2022-08-09T21:32:50.520Z,1.13
2022-08-09T21:35:17.885Z,1.20
2022-08-09T21:37:59.909Z,1.17
2022-08-09T21:40:30.972Z,1.20
2022-08-09T21:43:06.222Z,1.08
2022-08-09T21:45:38.868Z,1.70
2022-08-09T21:48:07.845Z,2.63
2022-08-09T21:50:38.713Z,1.15
2022-08-09T21:53:19.902Z,1.30
2022-08-09T21:55:54.582Z,1.65
2022-08-09T21:58:31.134Z,1.42
2022-08-09T22:00:58.728Z,1.20
2022-08-09T22:03:26.235Z,1.52
2022-08-09T22:05:55.009Z,1.30
2022-08-09T22:08:28.036Z,1.50
2022-08-09T22:11:01.107Z,1.38
2022-08-09T22:13:43.936Z,1.38
2022-08-09T22:16:12.046Z,1.40
2022-08-09T22:18:54.283Z,1.45
2022-08-09T22:21:27.356Z,1.52
2022-08-09T22:24:16.912Z,1.50
2022-08-09T22:26:47.855Z,1.67
2022-08-09T22:29:19.346Z,1.60
2022-08-09T22:31:56.666Z,1.55
2022-08-09T22:34:25.547Z,1.40
2022-08-09T22:36:54.001Z,1.70
2022-08-09T22:39:57.601Z,1.77
2022-08-09T22:42:21.331Z,1.38
2022-08-09T22:48:05.207Z,1.70
2022-08-09T22:48:30.228Z,2.03
2022-08-09T22:50:30.097Z,1.70
2022-08-09T22:52:58.639Z,1.40
2022-08-09T22:55:39.663Z,1.50
2022-08-09T22:58:30.955Z,1.48
2022-08-09T23:01:02.296Z,1.40
2022-08-09T23:04:02.485Z,1.52
2022-08-09T23:06:34.965Z,1.35
2022-08-09T23:09:06.908Z,1.92
2022-08-09T23:11:34.338Z,1.70
2022-08-09T23:14:03.127Z,1.38
2022-08-09T23:16:30.546Z,1.65
2022-08-09T23:18:57.567Z,1.80
2022-08-09T23:21:28.742Z,1.48
2022-08-09T23:24:05.995Z,1.40
2022-08-09T23:26:35.894Z,1.33
2022-08-09T23:29:04.342Z,1.55
2022-08-09T23:31:31.630Z,1.50
2022-08-09T23:33:58.755Z,1.58
2022-08-09T23:36:26.008Z,1.83
2022-08-09T23:38:52.994Z,1.52
2022-08-09T23:41:28.367Z,1.67
2022-08-09T23:43:59.828Z,1.58
2022-08-09T23:46:28.815Z,1.50
2022-08-09T23:48:56.735Z,1.73
2022-08-09T23:51:23.784Z,1.70
2022-08-09T23:53:52.491Z,1.45
2022-08-09T23:56:53.766Z,1.70
2022-08-09T23:59:09.608Z,1.80
